Time;durP1;ratioP1;P1;durP2;ratioP2;P2;SDS_P1;SDS_P2;PMS_P1;PMS_P2;Temp;Humidity;BMP_temperature;BMP_pressure;BME280_temperature;BME280_humidity;BME280_pressure;Samples;Min_cycle;Max_cycle;Signal;HPM_P1;HPM_P2
2022/12/28 00:02:09;;;;;;;16.30;7.35;;;7.80;80.00;;;;;;2343585;57;21038;-49
2022/12/28 00:04:36;;;;;;;16.45;6.22;;;7.80;79.90;;;;;;2344218;57;21121;-49
2022/12/28 00:07:04;;;;;;;13.38;5.85;;;7.80;79.70;;;;;;2343411;57;21046;-50
2022/12/28 00:09:31;;;;;;;14.77;6.00;;;7.80;79.50;;;;;;2343148;57;21089;-47
2022/12/28 00:11:58;;;;;;;10.23;5.43;;;7.80;79.40;;;;;;2343688;57;21062;-47
2022/12/28 00:14:25;;;;;;;10.75;5.78;;;7.80;79.40;;;;;;2343767;57;21046;-48
2022/12/28 00:16:53;;;;;;;12.35;5.55;;;7.80;79.30;;;;;;2342310;57;21525;-46
2022/12/28 00:19:20;;;;;;;20.73;5.82;;;7.80;79.20;;;;;;2343331;57;21054;-49
2022/12/28 00:21:47;;;;;;;13.52;5.10;;;7.90;79.10;;;;;;2343186;57;21201;-52
2022/12/28 00:24:19;;;;;;;10.68;4.80;;;7.90;78.90;;;;;;2343160;57;21621;-52
2022/12/28 00:26:46;;;;;;;12.65;5.00;;;7.90;78.70;;;;;;2343137;57;21184;-51
2022/12/28 00:29:13;;;;;;;8.13;4.50;;;7.90;78.50;;;;;;2343682;57;21101;-47
2022/12/28 00:31:41;;;;;;;7.85;3.90;;;7.80;78.50;;;;;;2343234;57;21573;-48
2022/12/28 00:34:08;;;;;;;11.02;4.97;;;7.90;78.50;;;;;;2343130;57;21038;-46
2022/12/28 00:36:35;;;;;;;10.65;5.47;;;7.80;78.30;;;;;;2343665;57;21061;-50
2022/12/28 00:39:02;;;;;;;7.65;4.37;;;7.80;78.40;;;;;;2343493;57;21026;-47
2022/12/28 00:41:29;;;;;;;9.00;4.40;;;7.90;78.30;;;;;;2343202;57;21121;-47
2022/12/28 00:43:56;;;;;;;9.27;3.50;;;7.80;78.00;;;;;;2343213;57;21058;-48
2022/12/28 00:46:23;;;;;;;8.95;3.90;;;7.90;78.00;;;;;;2343423;57;21030;-49
2022/12/28 00:48:51;;;;;;;10.50;4.00;;;7.90;78.00;;;;;;2343672;57;21211;-48
2022/12/28 00:51:20;;;;;;;9.98;3.85;;;7.90;78.00;;;;;;2342811;57;21041;-48
2022/12/28 00:53:47;;;;;;;7.12;3.45;;;7.80;77.90;;;;;;2344149;57;21522;-51
2022/12/28 00:56:16;;;;;;;7.28;3.87;;;7.90;77.80;;;;;;2343827;57;21046;-47
2022/12/28 00:58:45;;;;;;;9.13;3.70;;;7.90;77.50;;;;;;2344728;57;21565;-47
2022/12/28 01:01:14;;;;;;;7.15;3.55;;;7.90;77.40;;;;;;2345081;57;21029;-48
2022/12/28 01:03:41;;;;;;;5.45;3.17;;;7.90;77.40;;;;;;2591843;53;21486;-50
2022/12/28 01:06:11;;;;;;;8.23;3.72;;;7.90;77.30;;;;;;2344844;57;21066;-50
2022/12/28 01:08:39;;;;;;;8.93;3.20;;;7.90;77.20;;;;;;2345102;57;21041;-48
2022/12/28 01:11:11;;;;;;;7.05;2.87;;;7.90;77.10;;;;;;2344170;57;21093;-50
2022/12/28 01:13:38;;;;;;;9.10;2.90;;;8.00;76.90;;;;;;2343083;57;21121;-51
2022/12/28 01:16:14;;;;;;;7.97;3.12;;;8.00;76.80;;;;;;2343376;57;21538;-50
2022/12/28 01:18:42;;;;;;;7.95;2.60;;;7.90;76.50;;;;;;2342437;57;21038;-52
2022/12/28 01:21:11;;;;;;;6.62;3.05;;;7.90;76.60;;;;;;2343632;57;21669;-50
2022/12/28 01:23:38;;;;;;;7.25;2.95;;;7.90;76.50;;;;;;2342768;57;21553;-48
2022/12/28 01:26:06;;;;;;;5.45;2.60;;;8.00;76.50;;;;;;2343255;57;21094;-51
2022/12/28 01:28:33;;;;;;;6.05;3.00;;;8.00;76.10;;;;;;2343830;57;21534;-51
2022/12/28 01:31:04;;;;;;;6.65;2.85;;;8.00;75.90;;;;;;2343391;57;21090;-48
2022/12/28 01:33:31;;;;;;;5.28;2.22;;;8.00;75.80;;;;;;2343561;57;21608;-50
2022/12/28 01:36:04;;;;;;;10.02;2.78;;;8.00;75.70;;;;;;2343156;57;21104;-49
2022/12/28 01:38:31;;;;;;;5.90;2.47;;;8.00;75.50;;;;;;2342195;57;21589;-47
2022/12/28 01:40:58;;;;;;;7.28;2.50;;;7.90;75.40;;;;;;2343464;57;21061;-50
2022/12/28 01:43:39;;;;;;;6.35;2.30;;;7.90;75.40;;;;;;2342822;57;21050;-50
2022/12/28 01:46:07;;;;;;;4.68;2.70;;;7.90;75.40;;;;;;2344892;57;21093;-49
2022/12/28 01:48:35;;;;;;;5.68;2.05;;;7.90;75.40;;;;;;2344781;57;21565;-48
2022/12/28 01:51:03;;;;;;;5.25;2.25;;;7.90;75.30;;;;;;2345280;57;21589;-49
2022/12/28 01:53:30;;;;;;;5.97;2.25;;;7.90;75.10;;;;;;2345726;57;21570;-48
2022/12/28 01:55:58;;;;;;;7.65;2.67;;;7.90;75.10;;;;;;2345170;57;21014;-51
2022/12/28 01:58:29;;;;;;;10.90;2.62;;;7.90;75.00;;;;;;2344709;57;21113;-51
2022/12/28 02:00:56;;;;;;;4.53;2.20;;;7.80;74.90;;;;;;2342786;57;21049;-49
2022/12/28 02:03:27;;;;;;;8.07;2.08;;;7.90;75.00;;;;;;2342966;57;21199;-46
2022/12/28 02:05:59;;;;;;;5.37;2.08;;;7.90;74.90;;;;;;2343664;57;21616;-46
2022/12/28 02:08:32;;;;;;;8.55;2.25;;;7.90;74.80;;;;;;2344149;57;21145;-51
2022/12/28 02:11:00;;;;;;;7.20;2.20;;;7.90;75.60;;;;;;2344378;57;21546;-46
2022/12/28 02:13:27;;;;;;;3.20;1.90;;;7.90;74.80;;;;;;2344001;57;21026;-50
2022/12/28 02:15:55;;;;;;;6.50;2.20;;;7.90;74.50;;;;;;2343972;57;21606;-49
2022/12/28 02:18:24;;;;;;;4.68;2.10;;;8.00;74.50;;;;;;2343543;57;21050;-48
2022/12/28 02:21:23;;;;;;;6.85;2.53;;;8.00;74.30;;;;;;2343002;57;21125;-50
2022/12/28 02:27:12;;;;;;;5.93;2.22;;;8.00;74.20;;;;;;2354867;57;22077;-48
2022/12/28 02:30:02;;;;;;;5.35;2.40;;;8.00;73.70;;;;;;2366237;56;21055;-45
2022/12/28 02:32:45;;;;;;;4.55;2.58;;;7.90;73.90;;;;;;2373205;56;21102;-47
2022/12/28 02:35:19;;;;;;;10.90;2.20;;;8.00;74.10;;;;;;2373104;56;21123;-48
2022/12/28 02:37:48;;;;;;;4.20;1.60;;;7.90;73.80;;;;;;2375234;56;21106;-50
2022/12/28 02:40:19;;;;;;;4.18;1.50;;;7.90;73.80;;;;;;2375043;56;21023;-47
2022/12/28 02:42:47;;;;;;;6.40;1.75;;;7.90;73.90;;;;;;2374947;56;21503;-48
2022/12/28 02:51:30;;;;;;;7.12;1.70;;;7.90;73.80;;;;;;2373152;56;21062;-48
2022/12/28 02:57:15;;;;;;;5.62;2.03;;;7.90;74.00;;;;;;2626454;52;21042;-51
2022/12/28 02:59:59;;;;;;;4.53;1.90;;;7.90;73.90;;;;;;2372441;56;21185;-50
2022/12/28 03:02:55;;;;;;;4.30;1.90;;;7.90;74.10;;;;;;2374036;56;21522;-50
2022/12/28 03:08:19;;;;;;;3.72;1.60;;;7.90;73.90;;;;;;2355988;56;22054;-51
2022/12/28 03:10:55;;;;;;;4.95;1.83;;;7.90;74.00;;;;;;2374047;56;21515;-48
2022/12/28 03:13:44;;;;;;;7.03;2.42;;;7.90;74.00;;;;;;2373715;56;21055;-50
2022/12/28 03:16:16;;;;;;;8.85;2.25;;;7.90;74.20;;;;;;2373041;56;21047;-51
2022/12/28 03:32:47;;;;;;;7.12;2.00;;;7.90;74.90;;;;;;2629527;52;20899;-47
2022/12/28 03:35:16;;;;;;;3.95;1.90;;;7.90;75.10;;;;;;2376454;56;21582;-50
2022/12/28 03:37:49;;;;;;;5.62;2.10;;;8.00;75.20;;;;;;2375468;56;21126;-51
2022/12/28 03:40:26;;;;;;;9.95;2.20;;;8.00;75.30;;;;;;2373855;56;21543;-50
2022/12/28 03:45:48;;;;;;;5.87;1.80;;;7.90;75.60;;;;;;2373840;56;21059;-52
2022/12/28 03:48:16;;;;;;;5.40;2.00;;;7.90;75.80;;;;;;2374162;56;21686;-50
2022/12/28 03:50:45;;;;;;;8.23;2.33;;;7.90;76.00;;;;;;2374973;56;21083;-49
2022/12/28 03:53:13;;;;;;;15.98;2.30;;;7.80;76.20;;;;;;2376014;56;22634;-49
2022/12/28 03:55:42;;;;;;;9.30;2.85;;;7.90;76.40;;;;;;2375595;56;21688;-46
2022/12/28 03:58:09;;;;;;;4.12;2.10;;;7.80;76.60;;;;;;2374281;56;21054;-49
2022/12/28 04:00:36;;;;;;;7.53;2.37;;;7.80;76.60;;;;;;2374489;56;21535;-47
2022/12/28 04:03:03;;;;;;;7.55;2.25;;;7.80;76.80;;;;;;2374796;56;21047;-49
2022/12/28 04:05:30;;;;;;;8.48;2.30;;;7.90;76.90;;;;;;2374482;56;21102;-48
2022/12/28 04:07:58;;;;;;;6.07;2.10;;;7.90;76.70;;;;;;2373301;56;21051;-48
2022/12/28 04:10:25;;;;;;;4.80;2.12;;;7.90;76.70;;;;;;2373811;56;21129;-50
2022/12/28 04:12:55;;;;;;;10.15;2.28;;;7.80;76.80;;;;;;2373938;56;21057;-47
2022/12/28 04:15:22;;;;;;;5.65;2.40;;;7.80;76.80;;;;;;2375712;56;21026;-47
2022/12/28 04:17:50;;;;;;;5.10;2.30;;;7.80;76.80;;;;;;2375064;56;21108;-48
2022/12/28 04:20:17;;;;;;;5.70;2.30;;;7.80;77.10;;;;;;2374265;56;21482;-51
2022/12/28 04:22:44;;;;;;;3.45;1.77;;;7.80;77.20;;;;;;2373266;56;21535;-47
2022/12/28 04:25:11;;;;;;;7.45;2.37;;;7.70;77.40;;;;;;2373188;56;21031;-49
2022/12/28 04:27:38;;;;;;;8.40;2.83;;;7.70;77.40;;;;;;2372950;56;21110;-50
2022/12/28 04:30:08;;;;;;;5.60;2.25;;;7.70;77.40;;;;;;2372298;56;21098;-49
2022/12/28 04:32:35;;;;;;;5.87;2.47;;;7.70;77.30;;;;;;2373359;56;21129;-50
2022/12/28 04:35:03;;;;;;;5.62;2.60;;;7.70;77.40;;;;;;2373897;56;21129;-48
2022/12/28 04:37:30;;;;;;;6.72;2.42;;;7.70;77.50;;;;;;2373354;56;21570;-51
2022/12/28 04:39:58;;;;;;;6.32;2.37;;;7.70;77.60;;;;;;2373929;56;21538;-51
2022/12/28 04:42:25;;;;;;;7.30;2.50;;;7.60;77.80;;;;;;2371881;56;21054;-48
2022/12/28 04:44:53;;;;;;;6.15;2.22;;;7.60;78.00;;;;;;2372025;56;21165;-51
2022/12/28 04:47:20;;;;;;;5.15;2.22;;;7.60;78.10;;;;;;2372797;56;21094;-50
2022/12/28 04:49:47;;;;;;;9.18;2.90;;;7.60;78.10;;;;;;2372632;56;21212;-50
2022/12/28 04:52:14;;;;;;;5.78;2.58;;;7.60;78.10;;;;;;2373488;56;21047;-47
2022/12/28 04:54:41;;;;;;;8.77;2.85;;;7.60;78.20;;;;;;2372947;56;21060;-52
2022/12/28 04:59:43;;;;;;;7.78;2.83;;;7.50;78.10;;;;;;2314720;57;27800;-50
2022/12/28 05:02:10;;;;;;;4.00;2.05;;;7.30;80.90;;;;;;2347177;57;21014;-46
2022/12/28 05:04:38;;;;;;;5.25;2.40;;;7.40;80.40;;;;;;2347854;57;21009;-51
2022/12/28 05:07:05;;;;;;;4.30;2.70;;;7.50;79.70;;;;;;2347831;57;21021;-48
2022/12/28 05:09:32;;;;;;;6.25;2.45;;;7.60;79.10;;;;;;2347247;56;21016;-47
2022/12/28 05:11:59;;;;;;;6.50;2.87;;;7.60;78.70;;;;;;2348045;57;21014;-47
2022/12/28 05:14:26;;;;;;;5.57;2.70;;;7.60;78.70;;;;;;2347085;57;21173;-50
2022/12/28 05:16:53;;;;;;;7.18;2.75;;;7.60;78.70;;;;;;2346518;57;21037;-48
2022/12/28 05:19:20;;;;;;;6.60;3.15;;;7.60;78.80;;;;;;2345105;57;21085;-50
2022/12/28 05:21:47;;;;;;;6.28;2.50;;;7.50;78.70;;;;;;2345400;57;21049;-51
2022/12/28 05:24:14;;;;;;;5.45;2.62;;;7.60;78.90;;;;;;2346637;57;21041;-50
2022/12/28 05:26:42;;;;;;;7.97;3.35;;;7.50;79.00;;;;;;2347466;57;21061;-53
2022/12/28 05:29:09;;;;;;;5.97;2.60;;;7.50;79.00;;;;;;2346886;57;21037;-52
2022/12/28 05:31:36;;;;;;;5.55;2.65;;;7.50;79.10;;;;;;2346944;57;21049;-50
2022/12/28 05:34:03;;;;;;;6.18;2.72;;;7.50;79.30;;;;;;2347330;57;21030;-49
2022/12/28 05:36:32;;;;;;;5.55;2.85;;;7.50;79.40;;;;;;2346436;57;21621;-51
2022/12/28 05:39:00;;;;;;;7.65;2.83;;;7.50;80.20;;;;;;2346024;56;21093;-48
2022/12/28 05:41:28;;;;;;;8.07;2.60;;;7.40;79.60;;;;;;2347025;57;21608;-50
2022/12/28 05:43:57;;;;;;;8.80;3.00;;;7.40;79.70;;;;;;2346801;57;21121;-49
2022/12/28 05:46:26;;;;;;;4.62;2.97;;;7.40;79.80;;;;;;2347027;57;21522;-52
2022/12/28 05:48:54;;;;;;;9.07;2.95;;;7.40;79.70;;;;;;2594283;52;21604;-51
2022/12/28 05:51:23;;;;;;;8.48;2.75;;;7.40;79.70;;;;;;2346275;57;21542;-48
2022/12/28 05:53:51;;;;;;;8.05;3.00;;;7.40;79.90;;;;;;2348034;57;21022;-51
2022/12/28 05:56:20;;;;;;;13.52;3.15;;;7.40;80.10;;;;;;2347640;57;21613;-48
2022/12/28 05:58:52;;;;;;;13.23;3.12;;;7.40;80.20;;;;;;2347958;57;21804;-49
2022/12/28 06:01:22;;;;;;;6.82;2.62;;;7.40;80.30;;;;;;2347972;57;21054;-49
2022/12/28 06:03:58;;;;;;;5.70;2.87;;;7.40;80.30;;;;;;2346269;57;22322;-51
2022/12/28 06:06:26;;;;;;;6.50;3.53;;;7.40;80.40;;;;;;2594257;53;21145;-46
2022/12/28 06:08:54;;;;;;;5.87;2.92;;;7.40;80.40;;;;;;2345807;57;21791;-51
2022/12/28 06:11:23;;;;;;;5.15;2.72;;;7.40;80.50;;;;;;2345204;57;21720;-50
2022/12/28 06:13:51;;;;;;;4.10;2.87;;;7.40;80.70;;;;;;2345616;57;21633;-51
2022/12/28 06:16:20;;;;;;;9.02;3.30;;;7.40;80.80;;;;;;2346024;57;21528;-49
2022/12/28 06:18:48;;;;;;;7.32;3.20;;;7.40;80.90;;;;;;2346844;57;21692;-51
2022/12/28 06:21:17;;;;;;;7.10;3.25;;;7.40;81.00;;;;;;2346890;57;21033;-48
2022/12/28 06:23:44;;;;;;;6.47;2.90;;;7.40;81.20;;;;;;2346247;57;21029;-48
2022/12/28 06:28:49;;;;;;;6.97;3.45;;;7.40;81.50;;;;;;2340627;56;22106;-46
2022/12/28 06:31:19;;;;;;;5.53;3.30;;;7.50;82.60;;;;;;2356336;57;21513;-49
2022/12/28 06:33:47;;;;;;;4.18;2.33;;;7.60;83.60;;;;;;2356912;57;21088;-49
2022/12/28 06:36:16;;;;;;;4.50;2.40;;;7.60;84.00;;;;;;2356661;57;21108;-52
2022/12/28 06:38:44;;;;;;;4.22;2.35;;;7.70;82.70;;;;;;2356840;57;21691;-49
2022/12/28 06:41:13;;;;;;;3.25;2.40;;;7.70;82.20;;;;;;2356788;57;21620;-51
2022/12/28 06:43:41;;;;;;;4.75;2.62;;;7.70;81.90;;;;;;2357949;57;21752;-48
2022/12/28 06:46:09;;;;;;;3.80;2.67;;;7.70;81.70;;;;;;2357579;57;21036;-50
2022/12/28 06:48:36;;;;;;;5.05;2.72;;;7.70;81.60;;;;;;2357575;57;21512;-49
2022/12/28 06:51:06;;;;;;;5.65;3.25;;;7.70;81.60;;;;;;2357819;57;21029;-49
2022/12/28 06:53:35;;;;;;;3.87;2.72;;;7.70;81.70;;;;;;2356427;57;21034;-48
2022/12/28 06:56:04;;;;;;;5.60;2.40;;;7.70;81.70;;;;;;2356630;57;21696;-50
2022/12/28 06:58:32;;;;;;;3.28;2.97;;;7.70;81.60;;;;;;2356028;57;21049;-47
2022/12/28 07:01:07;;;;;;;4.07;2.62;;;7.70;81.70;;;;;;2356486;57;21683;-49
2022/12/28 07:03:35;;;;;;;8.05;3.30;;;7.70;81.60;;;;;;2356733;57;21041;-47
2022/12/28 07:06:03;;;;;;;5.60;3.03;;;7.70;81.80;;;;;;2357149;57;21826;-52
2022/12/28 07:08:31;;;;;;;7.95;3.62;;;7.80;81.80;;;;;;2357521;57;21042;-49
2022/12/28 07:11:02;;;;;;;2.97;2.37;;;7.80;81.90;;;;;;2357229;57;21615;-51
2022/12/28 07:13:29;;;;;;;5.45;2.83;;;7.80;82.80;;;;;;2356821;57;21085;-51
2022/12/28 07:15:56;;;;;;;5.07;3.10;;;7.70;82.20;;;;;;2356789;57;21056;-51
2022/12/28 07:18:24;;;;;;;6.60;2.78;;;7.80;82.30;;;;;;2605554;53;21195;-49
2022/12/28 07:20:57;;;;;;;7.30;2.62;;;7.80;82.50;;;;;;2356605;57;21128;-51
2022/12/28 07:23:28;;;;;;;9.07;2.83;;;7.80;82.60;;;;;;2606496;53;21042;-50
2022/12/28 07:25:56;;;;;;;5.87;3.10;;;7.80;82.50;;;;;;2356459;57;21518;-47
2022/12/28 07:28:23;;;;;;;3.80;2.55;;;7.80;82.50;;;;;;2357352;57;21653;-45
2022/12/28 07:30:51;;;;;;;4.87;2.60;;;7.80;82.70;;;;;;2357884;57;21096;-51
2022/12/28 07:33:18;;;;;;;4.62;2.30;;;7.80;82.70;;;;;;2357869;57;21478;-49
2022/12/28 07:35:45;;;;;;;4.95;2.80;;;7.90;82.80;;;;;;2357789;57;21037;-47
2022/12/28 07:38:12;;;;;;;6.55;2.58;;;7.90;82.90;;;;;;2357284;57;21022;-46
2022/12/28 07:43:15;;;;;;;5.20;2.60;;;7.90;83.00;;;;;;2355938;57;22550;-47
2022/12/28 07:45:42;;;;;;;3.47;2.75;;;7.90;83.20;;;;;;2347248;57;21058;-49
2022/12/28 07:48:09;;;;;;;5.62;2.62;;;7.90;83.20;;;;;;2350083;56;21061;-47
2022/12/28 07:50:37;;;;;;;3.50;2.53;;;7.90;83.20;;;;;;2374079;56;21511;-48
2022/12/28 07:53:04;;;;;;;4.03;3.10;;;7.90;83.30;;;;;;2375136;56;21070;-47
2022/12/28 07:55:31;;;;;;;3.80;2.45;;;8.00;83.40;;;;;;2375318;56;21126;-48
2022/12/28 07:57:58;;;;;;;3.58;2.80;;;8.00;83.60;;;;;;2374842;56;21074;-49
2022/12/28 08:00:25;;;;;;;3.83;2.42;;;8.00;83.70;;;;;;2374307;56;21106;-50
2022/12/28 08:02:56;;;;;;;3.78;2.80;;;8.00;83.80;;;;;;2375012;56;21122;-46
2022/12/28 08:05:23;;;;;;;3.22;2.30;;;8.00;84.00;;;;;;2374800;56;21046;-49
2022/12/28 08:07:50;;;;;;;3.80;2.45;;;8.00;83.90;;;;;;2374419;56;21135;-49
2022/12/28 08:10:17;;;;;;;5.90;3.47;;;8.10;83.70;;;;;;2374044;56;21031;-53
2022/12/28 08:12:44;;;;;;;4.00;2.53;;;8.10;83.70;;;;;;2374727;56;21098;-50
2022/12/28 08:15:12;;;;;;;3.90;2.55;;;8.20;83.90;;;;;;2374603;56;21051;-48
2022/12/28 08:17:39;;;;;;;3.97;2.67;;;8.10;84.00;;;;;;2374244;56;21039;-51
2022/12/28 08:20:08;;;;;;;3.10;2.55;;;8.10;84.00;;;;;;2374419;56;21054;-48
2022/12/28 08:22:35;;;;;;;4.07;2.70;;;8.20;84.20;;;;;;2375623;56;21031;-48
2022/12/28 08:25:02;;;;;;;3.33;2.62;;;8.20;84.30;;;;;;2375328;56;21039;-47
2022/12/28 08:27:29;;;;;;;5.28;2.92;;;8.20;84.40;;;;;;2374206;56;21067;-51
2022/12/28 08:29:57;;;;;;;5.22;3.10;;;8.20;84.50;;;;;;2374425;56;21094;-49
2022/12/28 08:32:24;;;;;;;4.70;3.05;;;8.20;84.60;;;;;;2374390;56;21073;-49
2022/12/28 08:34:51;;;;;;;5.10;2.85;;;8.30;85.00;;;;;;2374586;56;21038;-52
2022/12/28 08:37:19;;;;;;;3.55;2.95;;;8.20;85.00;;;;;;2374899;56;21027;-50
2022/12/28 08:39:46;;;;;;;5.18;2.62;;;8.30;85.20;;;;;;2374487;56;21031;-51
2022/12/28 08:42:13;;;;;;;3.25;2.65;;;8.30;85.30;;;;;;2375428;56;21554;-48
2022/12/28 08:44:40;;;;;;;3.70;2.78;;;8.30;85.30;;;;;;2375031;56;21605;-52
2022/12/28 08:47:07;;;;;;;3.47;2.67;;;8.30;85.10;;;;;;2374709;56;21042;-51
2022/12/28 08:49:34;;;;;;;2.72;2.47;;;8.40;85.20;;;;;;2374121;56;21139;-47
2022/12/28 08:52:01;;;;;;;7.28;3.87;;;8.40;85.20;;;;;;2374645;56;21051;-50
2022/12/28 08:54:29;;;;;;;4.62;2.80;;;8.50;85.30;;;;;;2373529;56;21051;-49
2022/12/28 08:56:56;;;;;;;3.40;2.70;;;8.50;85.40;;;;;;2373813;56;21538;-52
2022/12/28 08:59:23;;;;;;;4.85;2.90;;;8.50;85.50;;;;;;2373382;56;21126;-48
2022/12/28 09:01:50;;;;;;;2.95;2.53;;;8.60;85.40;;;;;;2373441;56;21058;-53
2022/12/28 09:04:20;;;;;;;3.35;2.78;;;8.60;85.40;;;;;;2373186;56;21553;-50
2022/12/28 09:06:48;;;;;;;3.22;2.85;;;8.70;85.30;;;;;;2374974;56;21090;-51
2022/12/28 09:09:18;;;;;;;3.90;3.22;;;8.70;85.20;;;;;;2374923;56;21109;-47
2022/12/28 09:11:47;;;;;;;4.43;3.45;;;8.70;85.20;;;;;;2374864;56;21559;-49
2022/12/28 09:14:14;;;;;;;4.05;3.22;;;8.80;85.10;;;;;;2374463;56;21054;-51
2022/12/28 09:16:42;;;;;;;4.97;3.50;;;8.80;84.90;;;;;;2373706;56;21542;-51
2022/12/28 09:19:13;;;;;;;3.92;3.53;;;8.80;84.90;;;;;;2373258;56;21106;-47
2022/12/28 09:21:40;;;;;;;4.45;3.92;;;8.90;85.40;;;;;;2372886;56;21078;-51
2022/12/28 09:24:08;;;;;;;4.40;4.00;;;8.90;85.50;;;;;;2373714;56;21950;-49
2022/12/28 09:26:37;;;;;;;4.45;4.00;;;8.90;85.50;;;;;;2374096;56;21058;-49
2022/12/28 09:29:07;;;;;;;5.43;4.70;;;9.00;85.40;;;;;;2374183;56;21568;-50
2022/12/28 09:31:35;;;;;;;7.45;5.07;;;9.00;85.60;;;;;;2374195;56;21050;-52
2022/12/28 09:34:03;;;;;;;5.93;4.82;;;9.00;85.90;;;;;;2373946;56;21031;-49
2022/12/28 09:36:33;;;;;;;6.00;4.45;;;9.00;85.80;;;;;;2373789;56;21031;-51
2022/12/28 09:39:02;;;;;;;6.72;5.43;;;9.10;86.00;;;;;;2372003;56;21050;-49
2022/12/28 09:41:31;;;;;;;5.30;4.80;;;9.10;85.90;;;;;;2625796;52;21550;-51
2022/12/28 09:46:50;;;;;;;7.12;6.43;;;9.10;85.90;;;;;;2335095;57;27772;-48
2022/12/28 09:49:20;;;;;;;8.73;6.75;;;9.20;88.70;;;;;;2459733;54;21095;-53
2022/12/28 09:51:53;;;;;;;6.32;5.12;;;9.20;87.40;;;;;;2294556;58;21059;-50
2022/12/28 09:54:20;;;;;;;7.10;4.82;;;9.30;86.50;;;;;;2292080;58;21511;-54
2022/12/28 09:56:48;;;;;;;6.87;5.95;;;9.40;85.50;;;;;;2292321;58;21107;-50
2022/12/28 09:59:20;;;;;;;6.37;5.37;;;9.40;85.30;;;;;;2292905;58;21485;-49
2022/12/28 10:01:53;;;;;;;8.35;6.30;;;9.40;85.30;;;;;;2292684;58;21682;-49
2022/12/28 10:04:20;;;;;;;8.50;6.20;;;9.50;85.40;;;;;;2294030;58;21013;-49
2022/12/28 10:06:47;;;;;;;9.18;7.05;;;9.50;85.40;;;;;;2291158;58;21171;-53
2022/12/28 10:09:23;;;;;;;8.00;6.78;;;9.50;85.80;;;;;;2291494;58;22206;-55
2022/12/28 10:14:32;;;;;;;7.35;6.12;;;9.50;85.70;;;;;;2353586;57;22649;-48
2022/12/28 10:16:59;;;;;;;8.27;6.35;;;9.50;85.60;;;;;;2374046;56;21197;-49
2022/12/28 10:19:28;;;;;;;8.77;6.72;;;9.60;85.10;;;;;;2351699;56;21525;-52
2022/12/28 10:22:00;;;;;;;7.82;5.65;;;9.60;85.40;;;;;;2345044;57;21635;-52
2022/12/28 10:24:29;;;;;;;7.35;6.50;;;9.60;85.60;;;;;;2346622;57;21578;-51
2022/12/28 10:27:00;;;;;;;10.45;7.75;;;9.60;85.80;;;;;;2345943;57;21505;-54
2022/12/28 10:29:30;;;;;;;9.13;7.07;;;9.70;85.90;;;;;;2344235;57;21537;-55
2022/12/28 10:32:01;;;;;;;7.68;6.55;;;9.70;86.00;;;;;;2346336;57;21640;-53
2022/12/28 10:34:30;;;;;;;7.82;5.95;;;9.70;86.00;;;;;;2344230;57;21143;-49
2022/12/28 10:37:05;;;;;;;6.30;5.57;;;9.70;85.90;;;;;;2343754;57;21114;-52
2022/12/28 10:39:33;;;;;;;10.98;6.43;;;9.80;85.70;;;;;;2345614;57;21137;-51
2022/12/28 10:42:01;;;;;;;5.20;4.70;;;9.80;85.40;;;;;;2345679;57;21557;-50
2022/12/28 10:44:31;;;;;;;7.10;5.43;;;9.80;85.50;;;;;;2345115;57;22093;-51
2022/12/28 10:49:35;;;;;;;7.18;6.32;;;9.80;85.50;;;;;;2333942;57;27825;-53
2022/12/28 10:52:06;;;;;;;6.03;5.37;;;9.80;88.30;;;;;;2348259;57;21541;-54
2022/12/28 10:54:36;;;;;;;6.78;5.70;;;9.90;87.20;;;;;;2347275;57;21682;-49
2022/12/28 10:57:03;;;;;;;5.95;5.03;;;10.00;86.00;;;;;;2347296;57;21038;-51
2022/12/28 10:59:32;;;;;;;6.40;4.75;;;10.10;85.50;;;;;;2347549;57;21680;-52
2022/12/28 11:02:22;;;;;;;10.63;6.62;;;10.10;85.00;;;;;;2347928;57;21033;-51
2022/12/28 11:04:55;;;;;;;6.75;5.50;;;10.10;84.90;;;;;;2346533;57;21600;-49
2022/12/28 11:07:29;;;;;;;6.43;5.73;;;10.10;84.90;;;;;;2345207;57;21049;-50
2022/12/28 11:10:15;;;;;;;6.40;5.70;;;10.10;84.90;;;;;;2346915;57;21064;-51
2022/12/28 11:12:44;;;;;;;6.22;5.32;;;10.20;84.90;;;;;;2346589;57;21069;-53
2022/12/28 11:15:15;;;;;;;6.70;5.50;;;10.20;84.60;;;;;;2345715;57;21129;-53
2022/12/28 11:17:44;;;;;;;10.10;5.43;;;10.20;84.70;;;;;;2345248;57;21058;-48
2022/12/28 11:20:17;;;;;;;6.60;5.15;;;10.20;84.90;;;;;;2347071;57;21676;-51
2022/12/28 11:22:45;;;;;;;7.60;6.15;;;10.30;84.90;;;;;;2347580;57;21121;-51
2022/12/28 11:25:16;;;;;;;8.80;6.70;;;10.30;84.50;;;;;;2347053;57;21553;-50
2022/12/28 11:27:44;;;;;;;6.40;5.07;;;10.30;84.70;;;;;;2346275;57;21136;-50
2022/12/28 11:32:52;;;;;;;9.45;6.10;;;10.30;84.40;;;;;;2299126;58;22652;-50
2022/12/28 11:35:22;;;;;;;9.23;6.70;;;10.30;84.20;;;;;;2315828;58;21057;-48
2022/12/28 11:37:51;;;;;;;5.85;5.20;;;10.40;84.30;;;;;;2317538;58;21532;-54
2022/12/28 11:40:51;;;;;;;7.35;6.12;;;10.40;84.20;;;;;;2316792;58;21062;-49
2022/12/28 11:43:47;;;;;;;5.95;5.10;;;10.40;84.20;;;;;;2316800;58;21345;-50
2022/12/28 11:46:38;;;;;;;5.30;4.80;;;10.40;84.10;;;;;;2318444;58;21557;-48
2022/12/28 11:49:23;;;;;;;5.43;4.80;;;10.40;84.30;;;;;;2318787;58;21034;-51
2022/12/28 11:52:44;;;;;;;5.00;4.37;;;10.40;84.50;;;;;;2318866;58;21032;-48
2022/12/28 11:55:34;;;;;;;5.12;4.03;;;10.40;84.50;;;;;;2317110;58;21070;-52
2022/12/28 11:58:58;;;;;;;5.87;4.00;;;10.40;84.40;;;;;;2317478;58;21553;-53
2022/12/28 12:01:44;;;;;;;4.87;3.95;;;10.50;84.30;;;;;;2316437;58;21062;-54
2022/12/28 12:04:37;;;;;;;5.82;4.47;;;10.50;84.10;;;;;;2317258;58;21136;-50
2022/12/28 12:10:32;;;;;;;4.80;3.70;;;10.50;83.90;;;;;;2355532;57;22070;-53
2022/12/28 12:13:02;;;;;;;7.62;4.90;;;10.50;84.00;;;;;;2346281;57;21604;-49
2022/12/28 12:15:38;;;;;;;4.45;4.05;;;10.50;84.20;;;;;;2345007;57;21152;-53
2022/12/28 12:18:13;;;;;;;4.12;3.55;;;10.50;84.40;;;;;;2350853;56;21102;-50
2022/12/28 12:20:50;;;;;;;4.82;3.78;;;10.50;84.30;;;;;;2371991;56;21055;-51
2022/12/28 12:23:29;;;;;;;6.60;3.92;;;10.50;84.40;;;;;;2372321;56;21610;-48
2022/12/28 12:25:59;;;;;;;4.43;3.80;;;10.50;84.50;;;;;;2373473;56;21114;-48
2022/12/28 12:28:39;;;;;;;5.05;4.07;;;10.50;84.60;;;;;;2372651;56;21126;-48
2022/12/28 12:31:12;;;;;;;4.65;4.05;;;10.50;84.70;;;;;;2626014;52;21059;-49
2022/12/28 12:33:43;;;;;;;4.03;3.65;;;10.50;84.70;;;;;;2375233;56;21561;-50
2022/12/28 12:36:30;;;;;;;4.57;3.97;;;10.60;84.50;;;;;;2375411;56;21042;-49
2022/12/28 12:39:18;;;;;;;4.68;3.47;;;10.50;84.60;;;;;;2375230;56;21531;-53
2022/12/28 12:41:56;;;;;;;4.32;3.90;;;10.60;84.50;;;;;;2374919;56;21515;-48
2022/12/28 12:44:33;;;;;;;9.15;6.78;;;10.60;84.30;;;;;;2374769;56;21019;-53
2022/12/28 12:47:38;;;;;;;5.35;4.18;;;10.60;84.20;;;;;;2373064;56;21070;-51
2022/12/28 12:50:34;;;;;;;4.15;3.45;;;10.60;84.50;;;;;;2373214;56;21601;-55
2022/12/28 12:53:11;;;;;;;4.55;4.00;;;10.60;84.50;;;;;;2373340;56;21043;-50
2022/12/28 12:55:53;;;;;;;4.72;4.05;;;10.60;84.10;;;;;;2373171;56;21535;-49
2022/12/28 12:58:25;;;;;;;3.60;3.30;;;10.60;84.30;;;;;;2625921;52;21819;-49
2022/12/28 13:03:40;;;;;;;4.72;3.97;;;10.70;84.20;;;;;;2355140;57;22129;-47
2022/12/28 13:06:11;;;;;;;5.68;3.97;;;10.60;84.50;;;;;;2347078;57;21045;-50
2022/12/28 13:08:44;;;;;;;3.50;3.12;;;10.60;84.50;;;;;;2357175;56;21074;-52
2022/12/28 13:11:13;;;;;;;4.62;3.55;;;10.70;84.60;;;;;;2373967;56;21035;-50
2022/12/28 13:13:43;;;;;;;6.90;3.55;;;10.70;84.50;;;;;;2373596;56;21523;-53
2022/12/28 13:16:14;;;;;;;4.03;3.30;;;10.70;84.50;;;;;;2373681;56;21593;-51
2022/12/28 13:18:53;;;;;;;3.85;3.33;;;10.70;84.60;;;;;;2373523;56;21550;-49
2022/12/28 13:21:21;;;;;;;5.28;3.72;;;10.70;84.40;;;;;;2372938;56;21618;-50
2022/12/28 13:23:50;;;;;;;3.42;3.12;;;10.70;84.10;;;;;;2373744;56;21407;-53
2022/12/28 13:26:21;;;;;;;3.87;3.53;;;10.70;84.20;;;;;;2375171;56;21018;-49
2022/12/28 13:28:54;;;;;;;4.78;3.75;;;10.70;84.30;;;;;;2374504;56;21038;-50
2022/12/28 13:31:25;;;;;;;4.90;4.25;;;10.80;84.40;;;;;;2374301;56;21161;-49
2022/12/28 13:33:57;;;;;;;5.45;4.47;;;10.80;84.30;;;;;;2374692;56;21098;-49
2022/12/28 13:36:25;;;;;;;5.80;5.10;;;10.80;84.40;;;;;;2626485;52;21043;-49
2022/12/28 13:39:10;;;;;;;6.25;5.22;;;10.80;84.30;;;;;;2372856;56;22106;-50
2022/12/28 13:41:42;;;;;;;6.15;4.90;;;10.80;84.40;;;;;;2372129;56;21043;-50
2022/12/28 13:44:43;;;;;;;5.93;4.75;;;10.80;84.40;;;;;;2372749;56;21518;-51
2022/12/28 13:47:16;;;;;;;5.03;4.53;;;10.80;84.40;;;;;;2371876;56;21707;-47
2022/12/28 13:49:51;;;;;;;7.80;5.25;;;10.90;84.20;;;;;;2373790;56;21035;-54
2022/12/28 13:52:22;;;;;;;7.65;6.28;;;10.80;84.20;;;;;;2374214;56;21578;-51
2022/12/28 13:54:53;;;;;;;8.68;6.28;;;10.80;84.30;;;;;;2374572;56;21644;-49
2022/12/28 13:57:23;;;;;;;10.57;7.05;;;10.90;84.20;;;;;;2373783;56;21688;-47
2022/12/28 13:59:53;;;;;;;8.88;7.28;;;10.90;84.40;;;;;;2371911;56;21499;-49
2022/12/28 14:02:22;;;;;;;9.75;6.70;;;10.90;84.40;;;;;;2372901;56;22457;-52
2022/12/28 14:04:52;;;;;;;10.30;8.00;;;10.90;84.10;;;;;;2372978;56;21622;-51
2022/12/28 14:07:21;;;;;;;10.82;7.80;;;10.90;83.80;;;;;;2373105;56;21526;-50
2022/12/28 14:09:49;;;;;;;11.95;8.48;;;10.90;83.90;;;;;;2373749;56;21137;-51